• Join FlightAware (Why Join?)
  • Login
  • US Flag 
11:42AM EST


 

Airport Tracker/Info


-or-


 

Live Flight TrackerFlight Track Log ✈ UPS1057 ✈ 17-May-2013 ✈ KMHT - KSDF

Flight Track Log - Related Links

Times and Time Zones

All times are in EDT time to prevent confusion due to time zone crossing. See the UPS1057 flight status page for this flight to view local times or setup timezone preferences in your user account.

Time Position Orientation Groundspeed Altitude Reporting Facility
EDT Latitude Longitude Course Direction KTS MPH feet Rate Location/Type
11:19PM 42.9470 -71.4430 333° Northwest 165 190 1,100  Level FlightAware
11:19PM 42.9710 -71.4590 334° Northwest 214 246 2,000 2,460 Climbing FlightAware
11:20PM 42.9970 -71.4750 336° Northwest 237 273 3,400 3,600 Climbing FlightAware
11:20PM 43.0090 -71.4870 324° Northwest 236 272 4,400 4,080 Climbing FlightAware
11:20PM 43.0160 -71.5000 306° West 237 273 5,100 3,720 Climbing FlightAware
11:21PM 43.0370 -71.5450 303° West 246 283 7,200 3,420 Climbing FlightAware
11:21PM 43.0430 -71.5590 300° West 251 289 7,700 3,300 Climbing FlightAware
11:21PM 43.0580 -71.6020 296° West 261 300 9,400 3,180 Climbing FlightAware
11:22PM 43.0600 -71.6270 276° West 270 311 10,100 2,160 Climbing FlightAware
11:22PM 43.0580 -71.7010 268° West 313 360 11,400 1,740 Climbing FlightAware
11:23PM 43.0560 -71.7980 268° West 361 415 12,600 2,280 Climbing FlightAware
11:24PM 43.0530 -71.8900 267° West 367 422 14,700 3,120 Climbing FlightAware
11:24PM 43.0500 -71.9860 268° West 371 427 16,800 2,880 Climbing FlightAware
11:25PM 43.0460 -72.0860 267° West 374 430 18,800 2,580 Climbing FlightAware
11:26PM 43.0430 -72.1840 268° West 381 438 20,500 2,400 Climbing FlightAware
11:27PM 43.0390 -72.2960 267° West 388 447 22,200 2,220 Climbing FlightAware
11:27PM 43.0350 -72.3920 267° West 390 449 23,700 2,160 Climbing FlightAware
11:28PM 43.0310 -72.4930 267° West 395 455 25,100 1,920 Climbing FlightAware
11:29PM 43.0270 -72.5940 267° West 398 458 26,300 1,680 Climbing FlightAware
11:29PM 43.0230 -72.6920 267° West 401 461 27,500 1,920 Climbing FlightAware
11:30PM 43.0180 -72.8130 267° West 393 452 29,200 2,100 Climbing FlightAware
11:31PM 43.0140 -72.8970 266° West 388 447 30,300 1,920 Climbing FlightAware
11:31PM 43.0070 -72.9810 264° West 389 448 31,500 1,800 Climbing FlightAware
11:32PM 42.9840 -73.0470 245° Southwest 399 459 32,300 1,620 Climbing FlightAware
11:33PM 42.9330 -73.1760 242° Southwest 392 451 33,800 960 Climbing FlightAware
11:33PM 42.9070 -73.2430 242° Southwest 392 451 33,800 120 Level FlightAware
11:34PM 42.8650 -73.3540 243° Southwest 392 451 34,000 120 Climbing FlightAware
11:35PM 42.8280 -73.4470 242° Southwest 391 450 34,000  Level FlightAware
11:35PM 42.7960 -73.5300 242° Southwest 390 449 34,000  Level FlightAware
11:36PM 42.7600 -73.6210 242° Southwest 391 450 34,000  Level FlightAware
11:37PM 42.7210 -73.7230 243° Southwest 392 451 34,000  Level FlightAware
11:37PM 42.6930 -73.7910 241° Southwest 393 452 34,000  Level FlightAware
11:38PM 42.6560 -73.8830 241° Southwest 393 452 34,000  Level FlightAware
11:39PM 42.6260 -73.9560 241° Southwest 393 452 34,000  Level FlightAware
11:40PM 42.5960 -74.0300 241° Southwest 393 452 34,000  Level FlightAware
11:40PM 42.5660 -74.1030 241° Southwest 393 452 34,000  Level FlightAware
11:41PM 42.5360 -74.1760 241° Southwest 393 452 34,000  Level FlightAware
11:42PM 42.4980 -74.2680 241° Southwest 393 452 34,000  Level FlightAware
11:42PM 42.4680 -74.3410 241° Southwest 393 452 34,000  Level FlightAware
11:43PM 42.4380 -74.4150 241° Southwest 393 452 34,000  Level FlightAware
11:44PM 42.3406 -74.6730 243° Southwest 400 460 34,000  Level FlightAware ADS-B
11:45PM 42.3128 -74.7430 242° Southwest 399 459 34,000  Level FlightAware ADS-B
11:45PM 42.2861 -74.8085 241° Southwest 400 460 34,000  Level FlightAware ADS-B
11:46PM 42.2583 -74.8762 241° Southwest 400 460 34,000  Level FlightAware ADS-B
11:46PM 42.2252 -74.9570 241° Southwest 401 461 34,000  Level FlightAware ADS-B
11:47PM 42.1914 -75.0399 241° Southwest 400 460 34,000  Level FlightAware ADS-B
11:47PM 42.1628 -75.1096 241° Southwest 400 460 34,000  Level FlightAware ADS-B
11:48PM 42.1303 -75.1882 241° Southwest 401 461 34,000  Level FlightAware ADS-B
11:49PM 42.0944 -75.2735 240° Southwest 402 463 34,000  Level FlightAware ADS-B
11:49PM 42.0645 -75.3457 241° Southwest 404 465 34,000  Level FlightAware ADS-B
11:50PM 42.0366 -75.4139 241° Southwest 406 467 34,000  Level FlightAware ADS-B
11:50PM 42.0082 -75.4823 241° Southwest 408 470 34,000  Level FlightAware ADS-B
11:51PM 41.9796 -75.5509 241° Southwest 409 471 34,000  Level FlightAware ADS-B
11:51PM 41.9471 -75.6286 241° Southwest 411 473 34,000  Level FlightAware ADS-B
11:52PM 41.9109 -75.7127 240° Southwest 411 473 34,000  Level FlightAware ADS-B
11:52PM 41.8841 -75.7771 241° Southwest 411 473 34,000  Level FlightAware ADS-B
11:53PM 41.8755 -75.8022 245° Southwest 407 468 34,000  Level FlightAware ADS-B
11:53PM 41.8554 -75.8723 249° West 403 464 34,000  Level FlightAware ADS-B
11:54PM 41.8358 -75.9453 250° West 403 464 34,000  Level FlightAware ADS-B
11:54PM 41.8169 -76.0154 250° West 402 463 34,000  Level FlightAware ADS-B
11:55PM 41.7971 -76.0905 251° West 403 464 34,000  Level FlightAware ADS-B
11:55PM 41.7776 -76.1607 250° West 404 465 34,000  Level FlightAware ADS-B
11:56PM 41.7581 -76.2312 250° West 405 466 34,000  Level FlightAware ADS-B
11:56PM 41.7385 -76.3020 250° West 406 467 34,000  Level FlightAware ADS-B
11:57PM 41.7158 -76.3844 250° West 406 467 34,000  Level FlightAware ADS-B
11:57PM 41.6959 -76.4550 249° West 406 467 34,000  Level FlightAware ADS-B
11:58PM 41.6761 -76.5280 250° West 406 467 34,000  Level FlightAware ADS-B
11:58PM 41.6559 -76.6010 250° West 407 468 34,000  Level FlightAware ADS-B
11:59PM 41.6358 -76.6715 249° West 407 468 34,000  Level FlightAware ADS-B
11:59PM 41.6138 -76.7491 249° West 407 468 34,000  Level FlightAware ADS-B
12:00AM 41.5938 -76.8221 250° West 408 470 34,000  Level FlightAware ADS-B
12:00AM 41.5731 -76.8954 249° West 410 472 34,000  Level FlightAware ADS-B
12:01AM 41.5528 -76.9663 249° West 410 472 34,000  Level FlightAware ADS-B
12:01AM 41.5315 -77.0423 249° West 412 474 34,000  Level FlightAware ADS-B
12:02AM 41.5106 -77.1161 249° West 414 476 34,000  Level FlightAware ADS-B
12:02AM 41.4897 -77.1878 249° West 415 478 34,000  Level FlightAware ADS-B
12:03AM 41.4692 -77.2617 250° West 415 478 34,000  Level FlightAware ADS-B
12:03AM 41.4468 -77.3382 249° West 416 479 34,000  Level FlightAware ADS-B
12:04AM 41.4258 -77.4123 249° West 415 478 34,000  Level FlightAware ADS-B
12:05AM 41.4070 -77.4770 249° West 415 478 34,000  Level FlightAware
12:05AM 41.3830 -77.5602 249° West 415 478 34,000  Level FlightAware ADS-B
12:06AM 41.3490 -77.6750 249° West 416 479 34,000  Level FlightAware
12:07AM 41.3210 -77.7750 250° West 416 479 34,000  Level FlightAware
12:07AM 41.2890 -77.8830 249° West 419 482 34,000  Level FlightAware
12:08AM 41.2610 -77.9770 248° West 420 483 34,000  Level FlightAware
12:09AM 41.2330 -78.0700 248° West 420 483 34,000  Level FlightAware
12:09AM 41.2010 -78.1810 249° West 420 483 34,000  Level FlightAware
12:10AM 41.1720 -78.2770 248° West 421 484 34,000  Level FlightAware
12:11AM 41.1410 -78.3850 249° West 422 486 34,000  Level FlightAware
12:12AM 41.1120 -78.4790 248° West 423 487 34,000  Level FlightAware
12:12AM 41.0820 -78.5780 248° West 424 488 34,000  Level FlightAware
12:13AM 41.0500 -78.6860 249° West 423 487 34,000  Level FlightAware
12:14AM 41.0210 -78.7830 248° West 423 487 34,000  Level FlightAware
12:14AM 40.9910 -78.8790 248° West 424 488 34,000  Level FlightAware
12:15AM 40.9600 -78.9820 248° West 423 487 34,000  Level FlightAware
12:16AM 40.9270 -79.0900 248° West 423 487 34,000  Level FlightAware
12:16AM 40.9000 -79.1760 247° West 423 487 34,000  Level FlightAware
12:17AM 40.8640 -79.2940 248° West 424 488 34,000  Level FlightAware
12:18AM 40.8340 -79.3920 248° West 425 489 34,000  Level FlightAware
12:19AM 40.8040 -79.4860 247° West 425 489 34,000  Level FlightAware
12:19AM 40.7710 -79.5910 247° West 426 490 34,000  Level FlightAware
12:20AM 40.7410 -79.6870 248° West 427 491 34,000  Level FlightAware
12:21AM 40.7100 -79.7880 248° West 428 493 34,000  Level FlightAware
12:21AM 40.6760 -79.8950 247° West 429 494 34,000  Level FlightAware
12:22AM 40.6450 -79.9940 248° West 430 495 34,000  Level FlightAware
12:23AM 40.6130 -80.0930 247° West 429 494 34,000  Level FlightAware
12:23AM 40.5830 -80.1880 247° West 428 493 34,000  Level FlightAware
12:24AM 40.5440 -80.3080 247° West 428 493 34,000  Level FlightAware
12:25AM 40.5130 -80.4040 247° West 429 494 34,000  Level FlightAware
12:26AM 40.4840 -80.4930 247° West 432 497 34,000  Level FlightAware
12:26AM 40.4400 -80.6290 247° West 434 499 34,000  Level FlightAware
12:27AM 40.4130 -80.7140 247° West 434 499 34,000  Level FlightAware
12:28AM 40.3770 -80.8230 247° West 436 502 34,000  Level FlightAware
12:28AM 40.3450 -80.9230 247° West 437 503 34,000  Level FlightAware
12:29AM 40.3130 -81.0200 247° West 436 502 34,000  Level FlightAware
12:30AM 40.2740 -81.1360 246° West 437 503 34,000  Level FlightAware
12:30AM 40.2410 -81.2360 247° West 438 504 34,000  Level FlightAware
12:31AM 40.2050 -81.3450 247° West 433 498 34,000  Level FlightAware
12:32AM 40.1730 -81.4400 246° West 429 494 34,000  Level FlightAware
12:33AM 40.1410 -81.5360 246° West 434 499 34,000  Level FlightAware
12:33AM 40.1050 -81.6450 247° West 438 504 34,000  Level FlightAware
12:34AM 40.0720 -81.7420 246° West 438 504 34,000  Level FlightAware
12:35AM 40.0360 -81.8480 246° West 438 504 34,000  Level FlightAware
12:35AM 40.0020 -81.9470 246° West 439 505 34,000  Level FlightAware
12:36AM 39.9690 -82.0440 246° West 440 506 34,000  Level FlightAware
12:37AM 39.9310 -82.1550 246° West 440 506 34,000  Level FlightAware
12:37AM 39.9000 -82.2470 246° West 439 505 34,000  Level FlightAware
12:38AM 39.8610 -82.3580 245° Southwest 439 505 34,000  Level FlightAware
12:39AM 39.8280 -82.4540 246° West 439 505 34,000  Level FlightAware
12:40AM 39.7950 -82.5490 246° West 440 506 34,000  Level FlightAware
12:40AM 39.7570 -82.6570 245° Southwest 443 510 34,000  Level FlightAware
12:41AM 39.7260 -82.7440 245° Southwest 443 510 34,000  Level FlightAware
12:42AM 39.6780 -82.8800 245° Southwest 443 510 34,000  Level FlightAware
12:43AM 39.6380 -82.9960 246° West 442 509 34,000  Level FlightAware
12:44AM 39.5900 -83.1310 245° Southwest 443 510 34,000  Level FlightAware
12:44AM 39.5510 -83.2400 245° Southwest 443 510 34,000  Level FlightAware
12:45AM 39.5050 -83.3700 245° Southwest 444 511 34,000  Level FlightAware
12:46AM 39.4700 -83.4670 245° Southwest 445 512 34,000  Level FlightAware
12:47AM 39.4360 -83.5630 245° Southwest 447 514 34,000  Level FlightAware
12:47AM 39.3960 -83.6720 245° Southwest 446 513 34,000  Level FlightAware
12:48AM 39.3580 -83.7700 243° Southwest 447 514 34,000  Level FlightAware
12:49AM 39.3080 -83.8710 237° Southwest 445 512 34,000  Level FlightAware
12:50AM 39.2520 -83.9830 237° Southwest 444 511 34,000 -1,380 Level FlightAware
12:50AM 39.1950 -84.0980 237° Southwest 448 516 31,600 -1,620 Descending FlightAware
12:51AM 39.1560 -84.1750 237° Southwest 448 516 31,600  Level FlightAware
12:52AM 39.1080 -84.2700 237° Southwest 448 516 31,600 -4,380 Level FlightAware
12:52AM 39.0640 -84.3600 238° Southwest 412 474 25,800 -4,680 Descending FlightAware
12:53AM 39.0230 -84.4410 237° Southwest 412 474 25,800 -1,740 Level FlightAware
12:54AM 38.9740 -84.5370 237° Southwest 411 473 23,200 -2,580 Descending FlightAware
12:55AM 38.9140 -84.6550 237° Southwest 408 470 21,300 -1,140 Descending FlightAware
12:56AM 38.8780 -84.7230 236° Southwest 408 470 21,300  Level FlightAware
12:56AM 38.8420 -84.7920 236° Southwest 408 470 21,300  Level FlightAware
12:57AM 38.8060 -84.8600 236° Southwest 408 470 21,300  Level FlightAware
12:58AM 38.7610 -84.9450 236° Southwest 408 470 21,300 -7,500 Level FlightAware
12:58AM 38.7110 -85.0000 221° Southwest 342 394 13,200 -9,720 Descending FlightAware
12:59AM 38.6720 -85.0380 217° Southwest 342 394 13,200  Level FlightAware
12:59AM 38.6290 -85.0800 217° Southwest 342 394 13,200  Level FlightAware
01:00AM 38.5860 -85.1210 217° Southwest 342 394 13,200 -960 Level FlightAware
01:01AM 38.4890 -85.2120 216° Southwest 362 417 11,800 -1,320 Descending FlightAware
01:01AM 38.4380 -85.2620 218° Southwest 325 374 11,300 -780 Descending FlightAware
01:02AM 38.3890 -85.3090 217° Southwest 291 335 10,700 -900 Descending FlightAware
01:03AM 38.3620 -85.3380 220° Southwest 283 326 10,300 -1,080 Descending FlightAware
01:03AM 38.3570 -85.3550 249° West 287 330 10,000 -1,620 Descending FlightAware
01:03AM 38.3550 -85.3860 265° West 289 333 9,500 -1,980 Descending FlightAware
01:04AM 38.3540 -85.4260 268° West 290 334 8,700 -1,860 Descending FlightAware
01:04AM 38.3540 -85.4770 270° West 287 330 7,800 -1,800 Descending FlightAware
01:05AM 38.3530 -85.5300 269° West 285 328 6,900 -1,680 Descending FlightAware
01:05AM 38.3530 -85.5630 270° West 279 321 6,400 -1,680 Descending FlightAware
01:05AM 38.3530 -85.6210 270° West 271 312 5,400 -1,680 Descending FlightAware
01:06AM 38.3580 -85.6680 278° West 273 314 4,600 -1,440 Descending FlightAware
01:06AM 38.3670 -85.7050 287° West 268 308 4,100 -780 Descending FlightAware
01:07AM 38.3780 -85.7480 288° West 240 276 3,900 -300 Descending FlightAware
01:07AM 38.3800 -85.7600 282° West 230 265 3,900 -780 Level FlightAware
01:08AM 38.3680 -85.7950 246° West 208 239 3,400 -960 Descending FlightAware
01:08AM 38.3560 -85.8050 213° Southwest 199 229 3,200 -840 Descending FlightAware
01:08AM 38.3450 -85.8050 180° South 189 217 3,000 -480 Descending FlightAware
01:08AM 38.3240 -85.7940 158° South 164 189 2,900 -180 Descending FlightAware
01:09AM 38.3140 -85.7910 167° South 149 171 2,900 -540 Level FlightAware
01:09AM 38.2940 -85.7840 165° South 147 169 2,500 -780 Descending FlightAware
01:10AM 38.2770 -85.7790 167° South 148 170 2,200 -780 Descending FlightAware
01:10AM 38.2570 -85.7720 165° South 136 157 1,800 -720 Descending FlightAware
01:10AM 38.2490 -85.7690 164° South 133 153 1,700 -540 Descending FlightAware
01:11AM 38.2320 -85.7640 167° South 125 144 1,400 -660 Descending FlightAware
01:11AM 38.2170 -85.7590 165° South 126 145 1,100 -780 Descending FlightAware
01:12AM 38.2000 -85.7530 164° South 125 144 700 -660 Descending FlightAware
01:12AM 38.1870 -85.7490 166° South 129 148 500 -480 Descending FlightAware